Time;durP1;ratioP1;P1;durP2;ratioP2;P2;SDS_P1;SDS_P2;PMS_P1;PMS_P2;Temp;Humidity;BMP_temperature;BMP_pressure;BME280_temperature;BME280_humidity;BME280_pressure;Samples;Min_cycle;Max_cycle;Signal;HPM_P1;HPM_P2
2023/07/24 00:02:12;;;;;;;0.10;0.10;;;;;;;21.92;100.00;98705.22;7395862;19;20455;-63
2023/07/24 00:04:38;;;;;;;0.10;0.10;;;;;;;18.70;100.00;98713.50;7398786;19;20007;-62
2023/07/24 00:07:04;;;;;;;0.10;0.00;;;;;;;18.45;100.00;98711.72;7397782;19;20039;-63
2023/07/24 00:09:31;;;;;;;0.10;0.00;;;;;;;18.85;100.00;98707.16;7392910;19;20469;-63
2023/07/24 00:11:57;;;;;;;0.10;0.00;;;;;;;18.35;100.00;98714.28;7392620;19;20463;-62
2023/07/24 00:14:23;;;;;;;0.10;0.00;;;;;;;18.76;100.00;98710.50;7398740;19;20031;-62
2023/07/24 00:16:50;;;;;;;0.10;0.10;;;;;;;21.39;100.00;98702.06;7394183;19;20463;-62
2023/07/24 00:19:16;;;;;;;0.30;0.10;;;;;;;23.63;100.00;98707.72;7392873;19;20019;-62
2023/07/24 00:21:42;;;;;;;0.10;0.00;;;;;;;24.58;100.00;98707.13;7391947;19;20007;-62
2023/07/24 00:24:08;;;;;;;0.10;0.10;;;;;;;26.37;100.00;98701.91;7393751;19;20343;-62
2023/07/24 00:26:35;;;;;;;0.22;0.20;;;;;;;27.76;100.00;98702.25;7396316;19;20021;-62
2023/07/24 00:29:01;;;;;;;0.10;0.10;;;;;;;27.63;93.36;98700.78;7395977;19;20014;-62
2023/07/24 00:31:27;;;;;;;0.10;0.00;;;;;;;31.14;76.02;98700.66;7392843;19;20018;-62
2023/07/24 00:33:54;;;;;;;0.10;0.10;;;;;;;23.12;100.00;98722.16;7391432;19;20011;-61
2023/07/24 00:36:20;;;;;;;0.10;0.10;;;;;;;17.67;100.00;98718.75;7392489;19;20019;-61
2023/07/24 00:38:46;;;;;;;0.10;0.00;;;;;;;18.25;100.00;98718.16;7397823;19;20018;-62
2023/07/24 00:41:14;;;;;;;0.10;0.00;;;;;;;19.32;100.00;98715.88;7392322;19;20011;-62
2023/07/24 00:43:41;;;;;;;0.10;0.00;;;;;;;19.58;100.00;98715.53;7393421;19;20018;-61
2023/07/24 00:46:07;;;;;;;0.10;0.00;;;;;;;20.34;100.00;98715.44;7394607;19;20018;-61
2023/07/24 00:48:33;;;;;;;0.40;0.10;;;;;;;19.93;100.00;98715.88;7395239;19;20015;-61
2023/07/24 00:50:59;;;;;;;0.10;0.10;;;;;;;19.42;100.00;98724.59;7399098;19;20069;-61
2023/07/24 00:53:26;;;;;;;0.10;0.10;;;;;;;19.17;100.00;98713.03;7391790;19;20011;-61
2023/07/24 00:55:53;;;;;;;0.10;0.10;;;;;;;19.07;100.00;98708.50;7391825;19;20776;-61
2023/07/24 00:58:22;;;;;;;0.52;0.30;;;;;;;20.07;100.00;98717.19;7392639;19;20347;-61
2023/07/24 01:00:49;;;;;;;0.10;0.10;;;;;;;19.77;100.00;98706.69;7391697;19;20513;-60
2023/07/24 01:03:16;;;;;;;0.57;0.15;;;;;;;19.25;100.00;98719.44;7390089;19;20014;-60
2023/07/24 01:05:42;;;;;;;0.10;0.10;;;;;;;19.21;100.00;98721.88;7394176;19;20014;-60
2023/07/24 01:08:08;;;;;;;0.65;0.10;;;;;;;20.99;100.00;98719.88;7391468;19;20018;-61
2023/07/24 01:10:34;;;;;;;0.95;0.43;;;;;;;18.81;100.00;98724.44;7391840;19;20462;-61
2023/07/24 01:13:03;;;;;;;0.35;0.20;;;;;;;19.66;100.00;98726.84;7391640;19;20096;-61
2023/07/24 01:15:37;;;;;;;0.10;0.10;;;;;;;19.68;100.00;98724.22;7395435;19;20207;-61
2023/07/24 01:18:08;;;;;;;0.10;0.10;;;;;;;20.73;100.00;98728.09;7391885;19;20011;-61
2023/07/24 01:20:37;;;;;;;0.10;0.00;;;;;;;20.88;100.00;98720.31;7391159;19;20018;-61
2023/07/24 01:23:27;;;;;;;0.10;0.10;;;;;;;21.09;100.00;98726.44;7388450;19;20347;-61
2023/07/24 01:25:58;;;;;;;0.10;0.10;;;;;;;20.02;100.00;98724.56;7392108;19;20014;-61
2023/07/24 01:28:26;;;;;;;0.10;0.00;;;;;;;20.96;100.00;98729.50;7395166;19;20051;-61
2023/07/24 01:30:53;;;;;;;0.10;0.10;;;;;;;19.77;100.00;98731.38;7390831;19;20011;-61
2023/07/24 01:33:21;;;;;;;0.28;0.10;;;;;;;18.98;100.00;98735.22;7392344;19;20019;-61
2023/07/24 01:35:54;;;;;;;0.10;0.10;;;;;;;18.47;100.00;98734.47;7392676;19;20017;-62
2023/07/24 01:38:23;;;;;;;0.10;0.10;;;;;;;19.88;100.00;98743.03;7393091;19;20011;-63
2023/07/24 01:40:52;;;;;;;0.10;0.00;;;;;;;20.10;100.00;98738.66;7390520;19;20011;-61
2023/07/24 01:43:19;;;;;;;0.10;0.00;;;;;;;20.57;100.00;98738.75;7389783;19;20038;-62
2023/07/24 01:45:45;;;;;;;0.10;0.00;;;;;;;21.99;100.00;98738.41;7393879;19;20022;-62
2023/07/24 01:48:11;;;;;;;0.10;0.10;;;;;;;19.43;100.00;98743.78;7398530;19;20491;-61
2023/07/24 01:50:37;;;;;;;0.10;0.10;;;;;;;18.95;100.00;98744.78;7400511;19;20459;-61
2023/07/24 01:53:03;;;;;;;0.10;0.10;;;;;;;19.99;100.00;98747.56;7397988;19;20006;-61
2023/07/24 01:55:29;;;;;;;0.13;0.13;;;;;;;19.84;100.00;98747.56;7398946;19;20029;-62
2023/07/24 01:57:56;;;;;;;0.15;0.10;;;;;;;19.76;100.00;98729.84;7397554;19;20499;-63
2023/07/24 02:00:22;;;;;;;0.10;0.10;;;;;;;19.56;100.00;98740.78;7396468;19;20505;-63
2023/07/24 02:02:57;;;;;;;0.10;0.10;;;;;;;21.03;100.00;98734.41;7395926;19;20034;-63
2023/07/24 02:05:23;;;;;;;0.35;0.20;;;;;;;19.85;100.00;98732.88;7397095;19;20411;-63
2023/07/24 02:07:49;;;;;;;0.17;0.17;;;;;;;19.94;100.00;98740.00;7396796;19;20015;-61
2023/07/24 02:10:15;;;;;;;0.13;0.10;;;;;;;19.72;100.00;98737.94;7398572;19;20025;-63
2023/07/24 02:12:41;;;;;;;0.25;0.25;;;;;;;22.59;100.00;98745.56;7396486;19;20010;-63
2023/07/24 02:15:08;;;;;;;0.20;0.13;;;;;;;19.85;100.00;98749.06;7398901;19;20019;-62
2023/07/24 02:17:35;;;;;;;0.22;0.22;;;;;;;20.50;100.00;98742.38;7397382;19;20078;-62
2023/07/24 02:20:01;;;;;;;0.38;0.20;;;;;;;19.21;100.00;98758.59;7398579;19;20022;-63
2023/07/24 02:22:51;;;;;;;0.10;0.10;;;;;;;18.73;100.00;98756.78;7396187;19;20014;-62
2023/07/24 02:25:17;;;;;;;2.58;0.20;;;;;;;20.13;100.00;98757.31;7395041;19;20082;-80
2023/07/24 02:27:43;;;;;;;0.40;0.25;;;;;;;19.81;100.00;98754.34;7397175;19;20018;-80
2023/07/24 02:30:09;;;;;;;0.17;0.17;;;;;;;18.80;100.00;98765.25;7393943;19;20015;-80
2023/07/24 02:32:36;;;;;;;0.38;0.35;;;;;;;19.18;100.00;98745.63;7390465;19;20011;-80
2023/07/24 02:35:02;;;;;;;1.17;0.73;;;;;;;25.25;100.00;98738.34;7394437;19;20018;-80
2023/07/24 02:37:28;;;;;;;0.10;0.10;;;;;;;32.13;67.44;98731.13;7394282;19;20022;-80
2023/07/24 02:39:54;;;;;;;0.80;0.52;;;;;;;20.73;100.00;98745.09;7391604;19;20022;-80
2023/07/24 02:42:20;;;;;;;0.40;0.30;;;;;;;19.20;100.00;98754.28;7394605;19;20014;-80
2023/07/24 02:44:46;;;;;;;0.85;0.10;;;;;;;18.97;100.00;98750.66;7393613;19;20039;-80
2023/07/24 02:47:13;;;;;;;0.32;0.22;;;;;;;21.00;100.00;98746.09;7393101;19;20082;-80
2023/07/24 02:49:39;;;;;;;0.63;0.20;;;;;;;19.93;100.00;98736.44;7395630;19;20022;-81
2023/07/24 02:52:05;;;;;;;0.10;0.10;;;;;;;19.05;100.00;98745.00;7393165;19;20423;-80
2023/07/24 02:54:32;;;;;;;0.40;0.35;;;;;;;18.97;100.00;98733.72;7393022;19;20096;-80
2023/07/24 02:56:58;;;;;;;0.15;0.15;;;;;;;18.96;100.00;98740.66;7392986;19;20025;-80
2023/07/24 02:59:24;;;;;;;0.10;0.10;;;;;;;19.18;100.00;98737.16;7391802;19;20018;-80
2023/07/24 03:01:50;;;;;;;0.10;0.10;;;;;;;19.26;100.00;98737.91;7391740;19;20027;-80
2023/07/24 03:04:16;;;;;;;0.15;0.15;;;;;;;19.24;100.00;98732.06;7392474;19;20018;-80
2023/07/24 03:06:42;;;;;;;0.10;0.10;;;;;;;21.53;100.00;98720.28;7392472;19;20019;-80
2023/07/24 03:09:09;;;;;;;0.25;0.25;;;;;;;19.65;100.00;98731.75;7392695;19;20018;-79
2023/07/24 03:11:35;;;;;;;0.90;0.17;;;;;;;20.46;100.00;98727.84;7396940;19;20010;-80
2023/07/24 03:14:02;;;;;;;0.30;0.20;;;;;;;19.67;100.00;98740.41;7393456;19;20350;-80
2023/07/24 03:16:28;;;;;;;1.35;0.30;;;;;;;19.54;100.00;98749.06;7395394;19;20484;-80
2023/07/24 03:18:54;;;;;;;0.10;0.10;;;;;;;18.66;100.00;98751.84;7394605;19;20018;-80
2023/07/24 03:21:21;;;;;;;0.77;0.32;;;;;;;19.19;100.00;98749.94;7395870;19;20025;-80
2023/07/24 03:26:56;;;;;;;0.20;0.20;;;;;;;19.27;100.00;98756.34;7394932;19;20006;-63
2023/07/24 03:29:24;;;;;;;0.10;0.10;;;;;;;19.31;100.00;98759.56;7391362;19;20017;-63
2023/07/24 03:31:50;;;;;;;1.13;0.22;;;;;;;19.31;100.00;98750.34;7394575;19;20014;-61
2023/07/24 03:34:16;;;;;;;0.15;0.15;;;;;;;19.96;100.00;98754.31;7393688;19;20066;-63
2023/07/24 03:36:43;;;;;;;0.22;0.20;;;;;;;20.55;100.00;98751.97;7393528;19;20046;-61
2023/07/24 03:39:10;;;;;;;0.13;0.13;;;;;;;19.92;100.00;98753.97;7392068;19;20341;-61
2023/07/24 03:41:37;;;;;;;0.10;0.10;;;;;;;20.70;100.00;98746.25;7392958;19;20496;-61
2023/07/24 03:44:04;;;;;;;0.15;0.05;;;;;;;22.63;100.00;98751.59;7396580;19;20038;-61
2023/07/24 03:46:32;;;;;;;0.10;0.10;;;;;;;22.92;100.00;98754.59;7399964;19;20010;-61
2023/07/24 03:48:58;;;;;;;0.40;0.22;;;;;;;21.06;100.00;98753.06;7395152;19;20070;-61
2023/07/24 03:51:24;;;;;;;0.10;0.10;;;;;;;22.33;100.00;98752.63;7395071;19;20014;-63
2023/07/24 03:53:51;;;;;;;0.90;0.32;;;;;;;18.10;100.00;98764.66;7394842;19;20018;-61
2023/07/24 03:56:17;;;;;;;0.20;0.20;;;;;;;21.99;100.00;98758.25;7395409;19;20425;-61
2023/07/24 03:58:43;;;;;;;2.38;0.20;;;;;;;17.25;100.00;98775.03;7395465;19;20351;-62
2023/07/24 04:01:09;;;;;;;0.10;0.10;;;;;;;16.28;100.00;98771.75;7393904;19;20036;-62
2023/07/24 04:03:36;;;;;;;0.22;0.20;;;;;;;21.78;100.00;98769.97;7394899;19;20011;-62
2023/07/24 04:06:02;;;;;;;0.10;0.10;;;;;;;18.66;100.00;98780.81;7394156;19;20019;-61
2023/07/24 04:08:28;;;;;;;0.15;0.10;;;;;;;19.96;100.00;98780.53;7394351;19;20481;-61
2023/07/24 04:10:56;;;;;;;0.55;0.30;;;;;;;22.29;100.00;98775.00;7394219;19;20015;-61
2023/07/24 04:13:22;;;;;;;0.52;0.20;;;;;;;20.61;100.00;98784.38;7393629;19;20459;-61
2023/07/24 04:15:48;;;;;;;0.65;0.20;;;;;;;19.59;100.00;98773.56;7396884;19;20454;-61
2023/07/24 04:18:15;;;;;;;0.20;0.10;;;;;;;19.58;100.00;98782.56;7394541;19;20481;-62
2023/07/24 04:20:41;;;;;;;0.32;0.32;;;;;;;19.51;100.00;98784.06;7394508;19;20015;-62
2023/07/24 04:23:07;;;;;;;0.63;0.40;;;;;;;20.67;100.00;98781.34;7391754;19;20024;-60
2023/07/24 04:25:33;;;;;;;0.20;0.20;;;;;;;20.20;100.00;98779.97;7393135;19;20376;-61
2023/07/24 04:27:59;;;;;;;0.10;0.10;;;;;;;20.51;100.00;98791.94;7392502;19;20053;-61
2023/07/24 04:30:25;;;;;;;0.68;0.40;;;;;;;24.10;100.00;98783.91;7393716;19;20343;-61
2023/07/24 04:32:51;;;;;;;0.10;0.10;;;;;;;22.81;100.00;98789.19;7394087;19;20010;-61
2023/07/24 04:35:17;;;;;;;0.47;0.30;;;;;;;26.02;97.60;98790.16;7394453;19;20010;-61
2023/07/24 04:37:43;;;;;;;0.20;0.20;;;;;;;23.84;99.38;98806.72;7393689;19;20027;-61
2023/07/24 04:40:10;;;;;;;0.10;0.10;;;;;;;18.04;100.00;98803.50;7394822;19;20014;-61
2023/07/24 04:42:36;;;;;;;0.15;0.15;;;;;;;16.63;100.00;98808.59;7392040;19;20364;-61
2023/07/24 04:45:03;;;;;;;0.28;0.28;;;;;;;21.77;100.00;98810.97;7394809;19;20010;-61
2023/07/24 04:47:29;;;;;;;0.20;0.13;;;;;;;20.02;100.00;98820.66;7392698;19;20007;-61
2023/07/24 04:49:55;;;;;;;0.10;0.10;;;;;;;21.37;100.00;98813.13;7394350;19;20018;-61
2023/07/24 04:52:21;;;;;;;0.10;0.00;;;;;;;19.75;100.00;98819.50;7392167;19;20014;-61
2023/07/24 04:54:47;;;;;;;0.10;0.10;;;;;;;17.02;100.00;98823.91;7391815;19;20485;-63
2023/07/24 04:57:13;;;;;;;0.20;0.20;;;;;;;16.53;100.00;98820.81;7392524;19;20459;-62
2023/07/24 04:59:39;;;;;;;0.52;0.10;;;;;;;16.29;100.00;98818.97;7392382;19;20010;-63
2023/07/24 05:02:05;;;;;;;0.20;0.17;;;;;;;15.36;100.00;98824.88;7390610;19;20363;-63
2023/07/24 05:04:31;;;;;;;0.47;0.20;;;;;;;15.75;100.00;98821.47;7391190;19;20470;-62
2023/07/24 05:06:58;;;;;;;0.63;0.30;;;;;;;18.19;100.00;98820.53;7393142;19;20006;-60
2023/07/24 05:09:24;;;;;;;0.40;0.10;;;;;;;19.15;100.00;98830.63;7397799;19;20007;-62
2023/07/24 05:11:50;;;;;;;0.20;0.17;;;;;;;19.15;100.00;98834.22;7391372;19;20014;-63
2023/07/24 05:14:16;;;;;;;0.55;0.20;;;;;;;19.10;100.00;98829.50;7392871;19;20010;-63
2023/07/24 05:16:42;;;;;;;0.45;0.20;;;;;;;22.01;100.00;98823.66;7393694;19;20009;-61
2023/07/24 05:19:08;;;;;;;1.75;0.63;;;;;;;22.96;100.00;98825.91;7393995;19;20568;-61
2023/07/24 05:21:34;;;;;;;1.40;0.55;;;;;;;20.12;100.00;98840.63;7400313;19;20015;-63
2023/07/24 05:24:00;;;;;;;0.40;0.25;;;;;;;23.85;100.00;98836.66;7400155;19;20018;-63
2023/07/24 05:26:26;;;;;;;7.53;0.63;;;;;;;28.25;94.60;98832.66;7402579;19;20003;-63
2023/07/24 05:28:52;;;;;;;1.27;0.30;;;;;;;19.40;100.00;98851.47;7403334;19;20014;-63
2023/07/24 05:31:19;;;;;;;0.20;0.10;;;;;;;25.24;100.00;98850.13;7399597;19;20015;-63
2023/07/24 05:33:45;;;;;;;0.93;0.57;;;;;;;21.93;100.00;98845.66;7400258;19;20015;-63
2023/07/24 05:36:11;;;;;;;0.22;0.10;;;;;;;19.74;100.00;98848.31;7402594;19;20368;-63
2023/07/24 05:38:37;;;;;;;0.32;0.32;;;;;;;19.25;100.00;98859.88;7398573;19;20021;-62
2023/07/24 05:41:03;;;;;;;2.05;0.32;;;;;;;20.44;100.00;98854.19;7402512;19;20041;-64
2023/07/24 05:43:31;;;;;;;0.43;0.13;;;;;;;18.51;100.00;98854.06;7397764;19;20010;-63
2023/07/24 05:45:57;;;;;;;4.88;0.47;;;;;;;19.14;100.00;98857.38;7401792;19;20013;-62
2023/07/24 05:48:24;;;;;;;0.35;0.30;;;;;;;26.94;96.48;98850.00;7398161;19;20037;-64
2023/07/24 05:50:51;;;;;;;1.70;0.40;;;;;;;22.89;100.00;98867.25;7400088;19;20360;-63
2023/07/24 05:53:17;;;;;;;0.77;0.32;;;;;;;20.40;100.00;98863.03;7399531;19;20112;-63
2023/07/24 05:55:43;;;;;;;0.10;0.10;;;;;;;20.06;100.00;98868.31;7399058;19;20031;-64
2023/07/24 05:58:10;;;;;;;0.30;0.20;;;;;;;20.30;100.00;98873.44;7399340;19;20462;-64
2023/07/24 06:00:36;;;;;;;3.70;0.73;;;;;;;20.16;100.00;98869.28;7399356;19;20026;-64
2023/07/24 06:03:03;;;;;;;0.85;0.20;;;;;;;23.95;100.00;98869.47;7395098;19;20019;-64
2023/07/24 06:05:29;;;;;;;1.27;0.43;;;;;;;22.13;100.00;98867.25;7397566;19;20021;-64
2023/07/24 06:07:55;;;;;;;4.95;0.45;;;;;;;20.07;100.00;98869.84;7397111;19;20015;-64
2023/07/24 06:10:22;;;;;;;0.25;0.25;;;;;;;20.05;100.00;98876.06;7400266;19;20015;-64
2023/07/24 06:12:48;;;;;;;0.20;0.20;;;;;;;21.16;100.00;98877.78;7397098;19;20018;-64
2023/07/24 06:15:14;;;;;;;0.68;0.47;;;;;;;18.16;100.00;98882.88;7398481;19;20011;-64
2023/07/24 06:17:40;;;;;;;0.55;0.45;;;;;;;22.87;100.00;98874.88;7397032;19;20039;-64
2023/07/24 06:20:07;;;;;;;0.80;0.40;;;;;;;20.73;100.00;98893.00;7401432;19;20010;-64
2023/07/24 06:22:33;;;;;;;0.25;0.20;;;;;;;20.95;100.00;98875.19;7395115;19;20019;-64
2023/07/24 06:24:59;;;;;;;0.63;0.52;;;;;;;24.55;100.00;98875.56;7396940;19;20075;-63
2023/07/24 06:27:25;;;;;;;0.60;0.32;;;;;;;22.74;100.00;98886.56;7395813;19;20014;-63
2023/07/24 06:29:51;;;;;;;1.10;0.22;;;;;;;23.09;100.00;98885.22;7395551;19;20022;-64
2023/07/24 06:32:17;;;;;;;0.30;0.30;;;;;;;21.61;100.00;98888.16;7393705;19;20017;-63
2023/07/24 06:34:44;;;;;;;0.25;0.25;;;;;;;20.05;100.00;98897.91;7396237;19;20397;-63
2023/07/24 06:37:10;;;;;;;0.10;0.10;;;;;;;20.15;100.00;98902.44;7395909;19;20483;-63
2023/07/24 06:39:36;;;;;;;2.92;0.57;;;;;;;22.26;100.00;98886.78;7397543;19;20025;-63
2023/07/24 06:42:03;;;;;;;0.55;0.30;;;;;;;26.90;96.76;98892.59;7396824;19;20017;-63
2023/07/24 06:44:29;;;;;;;0.73;0.40;;;;;;;18.40;100.00;98904.31;7396826;19;20038;-63
2023/07/24 06:46:55;;;;;;;0.50;0.30;;;;;;;16.80;100.00;98905.94;7396817;19;20011;-63
2023/07/24 06:49:22;;;;;;;0.55;0.40;;;;;;;25.18;100.00;98890.34;7395346;19;20015;-62
2023/07/24 06:51:48;;;;;;;0.17;0.17;;;;;;;17.54;100.00;98905.41;7396481;19;20339;-62
2023/07/24 06:54:14;;;;;;;0.45;0.45;;;;;;;18.92;100.00;98915.22;7397109;19;20014;-61
2023/07/24 06:56:40;;;;;;;0.30;0.10;;;;;;;16.32;100.00;98913.44;7396746;19;20015;-63
2023/07/24 06:59:06;;;;;;;0.20;0.10;;;;;;;15.93;100.00;98916.13;7395723;19;20070;-62
2023/07/24 07:01:32;;;;;;;0.43;0.43;;;;;;;15.40;100.00;98917.91;7394722;19;20007;-63
2023/07/24 07:03:59;;;;;;;0.10;0.10;;;;;;;15.84;100.00;98913.72;7396348;19;20011;-63
2023/07/24 07:06:25;;;;;;;1.55;0.25;;;;;;;18.36;100.00;98920.81;7396670;19;20014;-63
2023/07/24 07:08:51;;;;;;;0.20;0.10;;;;;;;20.38;100.00;98908.09;7394072;19;20035;-63
2023/07/24 07:11:17;;;;;;;0.73;0.30;;;;;;;22.68;100.00;98918.03;7394278;19;20019;-63
2023/07/24 07:13:43;;;;;;;0.17;0.17;;;;;;;21.47;100.00;98912.41;7396448;19;20010;-63
2023/07/24 07:16:09;;;;;;;1.95;0.13;;;;;;;17.54;100.00;98927.16;7399469;19;20022;-63
2023/07/24 07:18:36;;;;;;;0.70;0.20;;;;;;;16.59;100.00;98926.25;7397681;19;20010;-63
2023/07/24 07:21:02;;;;;;;0.10;0.10;;;;;;;15.41;100.00;98929.91;7394025;19;20011;-63
2023/07/24 07:23:28;;;;;;;1.55;0.20;;;;;;;15.43;100.00;98939.34;7394159;19;20010;-63
2023/07/24 07:25:54;;;;;;;0.57;0.30;;;;;;;16.13;100.00;98940.06;7394932;19;20070;-63
2023/07/24 07:28:21;;;;;;;4.00;0.47;;;;;;;16.62;100.00;98947.66;7393942;19;20039;-64
2023/07/24 07:30:47;;;;;;;0.85;0.43;;;;;;;17.79;100.00;98943.22;7396179;19;20464;-64
2023/07/24 07:33:13;;;;;;;0.13;0.13;;;;;;;18.22;100.00;98944.72;7394882;19;20015;-64
2023/07/24 07:35:39;;;;;;;0.73;0.30;;;;;;;19.78;100.00;98939.88;7393977;19;20018;-65
2023/07/24 07:38:05;;;;;;;3.70;0.30;;;;;;;19.79;100.00;98943.47;7397380;19;20019;-64
2023/07/24 07:40:32;;;;;;;22.02;1.02;;;;;;;20.18;100.00;98945.78;7395795;19;20023;-64
2023/07/24 07:42:58;;;;;;;1.50;0.40;;;;;;;16.76;100.00;98950.47;7393999;19;20056;-64
2023/07/24 07:45:25;;;;;;;0.30;0.28;;;;;;;15.80;100.00;98958.19;7396170;19;20015;-64
2023/07/24 07:47:53;;;;;;;1.27;0.47;;;;;;;18.97;100.00;98951.00;7395312;19;20451;-61
2023/07/24 07:50:19;;;;;;;1.42;0.73;;;;;;;21.82;100.00;98948.13;7393216;19;20027;-60
2023/07/24 07:52:46;;;;;;;4.10;0.77;;;;;;;21.59;100.00;98941.81;7390826;19;20007;-61
2023/07/24 07:55:13;;;;;;;0.55;0.30;;;;;;;21.63;100.00;98947.84;7396334;19;20351;-61
2023/07/24 07:57:40;;;;;;;1.98;0.20;;;;;;;30.57;82.09;98937.84;7396931;19;20390;-61
2023/07/24 08:00:07;;;;;;;0.20;0.20;;;;;;;22.50;100.00;98951.25;7391030;19;20015;-61
2023/07/24 08:02:34;;;;;;;0.20;0.10;;;;;;;21.91;100.00;98949.63;7391156;19;20467;-63
2023/07/24 08:05:00;;;;;;;1.15;0.65;;;;;;;21.10;100.00;98948.78;7396404;19;20021;-63
2023/07/24 08:07:26;;;;;;;1.70;0.68;;;;;;;21.57;100.00;98950.16;7396404;19;20011;-63
2023/07/24 08:09:52;;;;;;;0.95;0.45;;;;;;;28.05;100.00;98943.06;7392053;19;20015;-61
2023/07/24 08:12:18;;;;;;;6.47;0.85;;;;;;;21.49;100.00;98955.06;7394695;19;20995;-61
2023/07/24 08:14:45;;;;;;;0.95;0.13;;;;;;;20.84;100.00;98956.94;7397314;19;20014;-61
2023/07/24 08:17:11;;;;;;;0.57;0.10;;;;;;;21.31;100.00;98951.38;7395708;19;20052;-64
2023/07/24 08:19:37;;;;;;;0.43;0.17;;;;;;;21.05;100.00;98958.25;7397028;19;20011;-63
2023/07/24 08:22:05;;;;;;;0.10;0.10;;;;;;;23.81;100.00;98953.69;7396092;19;20011;-61
2023/07/24 08:24:35;;;;;;;1.90;0.20;;;;;;;21.85;100.00;98966.84;7395535;19;20017;-61
2023/07/24 08:27:01;;;;;;;1.30;0.20;;;;;;;21.16;100.00;98962.00;7397057;19;20082;-62
2023/07/24 08:29:28;;;;;;;4.18;0.65;;;;;;;22.73;100.00;98958.88;7397435;19;20252;-63
2023/07/24 08:31:54;;;;;;;0.80;0.40;;;;;;;25.48;100.00;98960.25;7396695;19;20170;-60
2023/07/24 08:34:20;;;;;;;0.20;0.20;;;;;;;21.80;100.00;98962.13;7391887;19;20015;-63
2023/07/24 08:36:46;;;;;;;0.20;0.20;;;;;;;21.12;100.00;98974.47;7393364;19;20014;-63
2023/07/24 08:39:13;;;;;;;0.10;0.10;;;;;;;20.94;100.00;98969.94;7392666;19;20015;-63
2023/07/24 08:41:40;;;;;;;0.17;0.10;;;;;;;21.17;100.00;98984.09;7393125;19;20011;-61
2023/07/24 08:44:09;;;;;;;0.50;0.43;;;;;;;20.99;100.00;98983.13;7395031;19;20459;-61
2023/07/24 08:46:37;;;;;;;0.20;0.10;;;;;;;21.12;100.00;98985.78;7395720;19;20010;-61
2023/07/24 08:49:03;;;;;;;2.85;0.20;;;;;;;21.02;100.00;98986.91;7392026;19;20049;-61
2023/07/24 08:51:31;;;;;;;3.03;0.75;;;;;;;26.01;100.00;98976.25;7393102;19;20481;-61
2023/07/24 08:53:57;;;;;;;5.00;0.65;;;;;;;21.89;100.00;98987.78;7393942;19;20017;-63
2023/07/24 08:56:23;;;;;;;0.32;0.15;;;;;;;24.88;100.00;98990.63;7399165;19;20011;-61
2023/07/24 08:58:50;;;;;;;0.35;0.32;;;;;;;27.59;100.00;98985.84;7399198;19;20019;-62
2023/07/24 09:01:16;;;;;;;0.95;0.30;;;;;;;25.24;100.00;98981.22;7398540;19;20018;-61
2023/07/24 09:03:43;;;;;;;0.25;0.20;;;;;;;27.09;100.00;98976.72;7399009;19;20043;-61
2023/07/24 09:06:09;;;;;;;0.57;0.20;;;;;;;23.08;100.00;98980.31;7401615;19;20007;-63
2023/07/24 09:08:40;;;;;;;0.60;0.22;;;;;;;25.73;100.00;98980.63;7400468;19;20021;-60
2023/07/24 09:11:07;;;;;;;0.35;0.30;;;;;;;21.91;100.00;98978.72;7398998;19;20006;-61
2023/07/24 09:13:36;;;;;;;0.30;0.20;;;;;;;21.38;100.00;98995.16;7399239;19;20014;-63
2023/07/24 09:16:02;;;;;;;0.52;0.28;;;;;;;21.40;100.00;98981.94;7403221;19;20018;-63
2023/07/24 09:18:42;;;;;;;0.90;0.43;;;;;;;22.02;100.00;98983.97;7400325;19;20018;-63
2023/07/24 09:21:12;;;;;;;2.05;0.20;;;;;;;23.58;100.00;98984.50;7398271;19;20047;-63
2023/07/24 09:23:43;;;;;;;0.10;0.10;;;;;;;26.52;100.00;98984.22;7399617;19;20070;-63
2023/07/24 09:26:09;;;;;;;0.20;0.10;;;;;;;24.63;100.00;98987.19;7400261;19;20359;-62
2023/07/24 09:28:36;;;;;;;0.35;0.20;;;;;;;23.01;100.00;98989.66;7398200;19;20123;-62
2023/07/24 09:31:03;;;;;;;0.60;0.30;;;;;;;27.15;99.34;98980.75;7401254;19;20011;-62
2023/07/24 09:33:40;;;;;;;0.13;0.05;;;;;;;29.74;88.71;98975.56;7398052;19;20025;-62
2023/07/24 09:36:08;;;;;;;1.45;0.20;;;;;;;29.58;91.05;98984.00;7398953;19;20014;-62
2023/07/24 09:38:35;;;;;;;5.95;0.63;;;;;;;24.79;100.00;98982.81;7398352;19;20028;-60
2023/07/24 09:41:05;;;;;;;0.63;0.45;;;;;;;25.23;100.00;98989.00;7400237;19;20014;-62
2023/07/24 09:43:32;;;;;;;0.40;0.20;;;;;;;23.02;100.00;98985.47;7395249;19;20012;-61
2023/07/24 09:45:59;;;;;;;0.73;0.20;;;;;;;23.64;100.00;98979.31;7400962;19;20504;-60
2023/07/24 09:48:26;;;;;;;0.65;0.08;;;;;;;23.35;100.00;98981.16;7398261;19;20021;-60
2023/07/24 09:50:55;;;;;;;0.15;0.10;;;;;;;22.97;100.00;98997.81;7399412;19;20506;-60
2023/07/24 09:53:48;;;;;;;0.45;0.22;;;;;;;22.89;100.00;98988.63;7398268;19;20038;-63
2023/07/24 09:56:15;;;;;;;2.47;0.22;;;;;;;23.28;100.00;98996.94;7399845;19;20014;-60
2023/07/24 09:58:44;;;;;;;0.20;0.10;;;;;;;26.46;100.00;98986.66;7397469;19;20023;-63
2023/07/24 10:01:11;;;;;;;2.17;0.38;;;;;;;26.88;98.84;98986.78;7400120;19;20022;-63
2023/07/24 10:03:49;;;;;;;0.68;0.30;;;;;;;29.14;90.58;98989.94;7396580;19;20021;-62
2023/07/24 10:06:16;;;;;;;2.80;0.38;;;;;;;29.02;89.63;98989.22;7397583;19;20044;-62
2023/07/24 10:08:43;;;;;;;4.15;1.88;;;;;;;30.10;85.00;98982.63;7396738;19;20482;-63
2023/07/24 10:11:12;;;;;;;8.75;2.80;;;;;;;30.25;82.63;98991.41;7396006;19;20340;-62
2023/07/24 10:13:39;;;;;;;1.02;0.38;;;;;;;28.35;79.44;98999.41;7399667;19;20014;-62
2023/07/24 10:16:06;;;;;;;0.63;0.38;;;;;;;25.47;100.00;99005.13;7399732;19;20350;-63
2023/07/24 10:18:35;;;;;;;0.65;0.55;;;;;;;28.45;88.44;98996.44;7397366;19;20335;-62
2023/07/24 10:21:02;;;;;;;0.60;0.10;;;;;;;30.47;73.55;99003.41;7396597;19;20015;-62
2023/07/24 10:23:28;;;;;;;0.95;0.68;;;;;;;26.16;96.03;99004.50;7394627;19;20011;-62
2023/07/24 10:25:54;;;;;;;0.57;0.22;;;;;;;29.64;84.49;99003.69;7399171;19;20017;-62
2023/07/24 10:28:31;;;;;;;0.40;0.40;;;;;;;31.18;75.77;99000.06;7398311;19;20011;-62
2023/07/24 10:30:57;;;;;;;2.22;0.20;;;;;;;29.17;83.49;99000.94;7396199;19;20070;-62
2023/07/24 10:33:23;;;;;;;1.38;0.30;;;;;;;31.10;74.75;99005.38;7396897;19;20031;-62
2023/07/24 10:35:54;;;;;;;0.63;0.10;;;;;;;31.27;71.64;99004.84;7398406;19;20350;-62
2023/07/24 10:38:34;;;;;;;1.27;0.55;;;;;;;30.12;71.54;99005.72;7399344;19;20341;-62
2023/07/24 10:41:03;;;;;;;0.22;0.20;;;;;;;31.68;69.19;99004.78;7400423;19;20019;-61
2023/07/24 10:43:44;;;;;;;0.27;0.27;;;;;;;29.12;72.76;99010.66;7398033;19;20049;-61
2023/07/24 10:46:11;;;;;;;0.77;0.20;;;;;;;32.35;63.92;98997.28;7399070;19;20122;-62
2023/07/24 10:48:42;;;;;;;0.88;0.28;;;;;;;32.23;61.19;99011.09;7398602;19;20015;-62
2023/07/24 10:51:09;;;;;;;0.25;0.15;;;;;;;29.38;66.71;99020.09;7395324;19;20074;-61
2023/07/24 10:53:40;;;;;;;0.75;0.10;;;;;;;27.67;79.34;99020.72;7396556;19;20514;-61
2023/07/24 10:56:07;;;;;;;0.38;0.20;;;;;;;26.90;85.02;99018.34;7397333;19;20466;-61
2023/07/24 10:58:35;;;;;;;0.30;0.10;;;;;;;26.98;90.13;99018.88;7399834;19;20045;-61
2023/07/24 11:01:04;;;;;;;0.35;0.22;;;;;;;26.26;91.36;99022.34;7395545;19;20014;-61
2023/07/24 11:03:31;;;;;;;0.10;0.10;;;;;;;26.07;93.23;99030.91;7394689;19;20082;-61
2023/07/24 11:05:58;;;;;;;3.00;0.10;;;;;;;26.33;87.18;99034.94;7393167;19;20032;-61
2023/07/24 11:08:25;;;;;;;0.43;0.15;;;;;;;25.67;85.71;99042.19;7395044;19;20466;-61
2023/07/24 11:10:52;;;;;;;0.80;0.20;;;;;;;25.65;90.86;99036.34;7396027;19;20010;-61
2023/07/24 11:13:25;;;;;;;0.10;0.10;;;;;;;25.71;92.32;99036.81;7393429;19;20017;-61
2023/07/24 11:15:53;;;;;;;0.20;0.10;;;;;;;25.24;94.63;99043.94;7396417;19;20015;-61
2023/07/24 11:18:22;;;;;;;3.20;0.10;;;;;;;24.52;100.00;99039.00;7394269;19;20074;-61
2023/07/24 11:20:53;;;;;;;1.40;0.45;;;;;;;25.17;98.94;99045.56;7396335;19;20066;-61
2023/07/24 11:23:19;;;;;;;;;;;;;;;25.21;100.00;99045.13;7395099;19;20055;-61
2023/07/24 11:25:46;;;;;;;0.75;0.60;;;;;;;25.42;100.00;99037.56;7393992;19;19978;-61
2023/07/24 11:28:14;;;;;;;2.13;0.60;;;;;;;25.48;100.00;99049.41;7393943;19;20014;-61
2023/07/24 11:30:41;;;;;;;1.00;0.25;;;;;;;25.32;100.00;99039.59;7394364;19;20015;-61